Time;durP1;ratioP1;P1;durP2;ratioP2;P2;SDS_P1;SDS_P2;PMS_P1;PMS_P2;Temp;Humidity;BMP_temperature;BMP_pressure;BME280_temperature;BME280_humidity;BME280_pressure;Samples;Min_cycle;Max_cycle;Signal;HPM_P1;HPM_P2
2022/03/18 00:00:20;;;;;;;;;37.00;33.33;;;;;10.05;64.77;102923.59;6221140;22;45790;-85
2022/03/18 00:02:49;;;;;;;;;32.33;31.33;;;;;10.14;64.57;102932.97;6220359;22;46280;-85
2022/03/18 00:05:15;;;;;;;;;35.67;33.00;;;;;10.05;64.70;102935.13;6222121;22;44776;-85
2022/03/18 00:07:40;;;;;;;;;30.67;30.67;;;;;10.08;64.30;102942.34;6195190;22;45388;-85
2022/03/18 00:10:07;;;;;;;;;28.67;28.67;;;;;10.07;64.13;102928.16;6194984;22;45553;-85
2022/03/18 00:12:33;;;;;;;;;34.33;34.00;;;;;10.00;64.15;102918.94;6222703;22;45960;-86
2022/03/18 00:14:59;;;;;;;;;30.33;28.33;;;;;9.99;64.10;102930.41;6194945;22;45375;-85
2022/03/18 00:17:25;;;;;;;;;36.00;32.33;;;;;10.01;64.16;102920.75;6223751;22;45339;-85
2022/03/18 00:19:51;;;;;;;;;37.33;31.33;;;;;9.99;63.91;102913.56;6193288;22;45404;-85
2022/03/18 00:22:17;;;;;;;;;30.67;29.33;;;;;9.97;63.80;102920.53;6220771;22;45845;-85
2022/03/18 00:24:43;;;;;;;;;28.67;28.00;;;;;10.00;63.72;102926.03;6232427;22;45391;-85
2022/03/18 00:27:09;;;;;;;;;33.33;31.33;;;;;10.00;63.54;102926.03;6252199;22;45347;-85
2022/03/18 00:29:36;;;;;;;;;27.33;24.33;;;;;10.08;63.43;102934.38;6252907;22;45349;-85
2022/03/18 00:32:02;;;;;;;;;25.00;25.00;;;;;9.95;63.54;102932.84;6251588;22;45678;-85
2022/03/18 00:34:27;;;;;;;;;31.67;28.33;;;;;9.90;63.51;102929.94;6252607;22;45433;-85
2022/03/18 00:36:54;;;;;;;;;31.33;29.67;;;;;9.88;63.51;102931.63;6253770;22;45395;-85
2022/03/18 00:39:20;;;;;;;;;28.00;26.33;;;;;9.96;63.66;102945.31;6225317;22;45561;-86
2022/03/18 00:41:46;;;;;;;;;28.00;27.33;;;;;9.89;63.29;102933.41;6224933;22;48164;-85
2022/03/18 00:44:11;;;;;;;;;28.67;28.67;;;;;9.92;63.30;102943.31;6224490;22;44710;-85
2022/03/18 00:46:36;;;;;;;;;29.67;28.67;;;;;9.91;63.65;102939.72;6225695;22;45376;-84
2022/03/18 00:54:33;;;;;;;;;33.00;30.33;;;;;9.82;63.76;102928.63;6253952;22;45375;-85
2022/03/18 00:57:42;;;;;;;;;33.67;26.00;;;;;9.97;62.98;102936.47;6224597;22;45693;-86
2022/03/18 01:00:08;;;;;;;;;25.00;21.00;;;;;9.73;63.07;102929.03;6225317;22;45329;-85
2022/03/18 01:02:33;;;;;;;;;27.33;25.33;;;;;9.72;63.58;102937.88;6226270;22;45524;-84
2022/03/18 01:04:59;;;;;;;;;28.00;24.00;;;;;9.76;63.52;102937.19;6226427;22;45815;-84
2022/03/18 01:07:24;;;;;;;;;27.67;22.67;;;;;9.72;62.71;102919.25;6225745;22;45394;-84
2022/03/18 01:09:50;;;;;;;;;26.67;25.00;;;;;9.76;63.17;102931.88;6252764;22;45462;-86
2022/03/18 01:12:19;;;;;;;;;19.33;19.33;;;;;9.75;62.53;102932.69;6223779;22;48463;-85
2022/03/18 01:14:44;;;;;;;;;17.00;17.00;;;;;9.67;62.38;102934.03;6223199;22;45381;-86
2022/03/18 01:17:11;;;;;;;;;19.33;19.33;;;;;9.80;62.33;102935.63;6224300;22;45397;-86
2022/03/18 01:19:37;;;;;;;;;20.67;19.67;;;;;9.69;62.46;102935.03;6251420;22;45393;-86
2022/03/18 01:22:03;;;;;;;;;23.33;18.33;;;;;9.68;62.17;102922.59;6225790;22;48042;-85
2022/03/18 01:24:28;;;;;;;;;16.33;14.00;;;;;9.66;62.35;102937.53;6224965;22;45421;-85
2022/03/18 01:26:54;;;;;;;;;18.00;14.67;;;;;9.65;62.31;102941.00;6227264;22;45412;-86
2022/03/18 01:32:42;;;;;;;;;15.67;15.67;;;;;9.74;62.61;102953.91;6255461;22;45753;-85
2022/03/18 01:35:08;;;;;;;;;18.67;18.67;;;;;9.73;62.54;102952.06;6226932;22;45449;-85
2022/03/18 01:37:34;;;;;;;;;20.67;18.00;;;;;9.73;62.76;102950.31;6227367;22;45385;-85
2022/03/18 01:39:59;;;;;;;;;17.00;17.00;;;;;9.67;62.63;102941.09;6227650;22;45355;-84
2022/03/18 01:42:25;;;;;;;;;20.33;16.00;;;;;9.73;62.83;102958.28;6227279;22;47064;-84
2022/03/18 01:44:51;;;;;;;;;17.33;16.33;;;;;9.67;62.51;102946.41;6226085;22;45431;-83
2022/03/18 01:47:18;;;;;;;;;23.33;21.33;;;;;9.68;62.93;102954.47;6226147;22;45291;-84
2022/03/18 01:49:44;;;;;;;;;15.67;15.33;;;;;9.72;62.51;102960.88;6225821;22;45299;-83
2022/03/18 01:52:11;;;;;;;;;21.33;20.33;;;;;9.80;62.75;102954.22;6225500;22;46798;-84
2022/03/18 01:54:50;;;;;;;;;22.00;17.00;;;;;9.78;62.79;102955.88;6253051;22;45823;-84
2022/03/18 01:57:18;;;;;;;;;21.33;21.00;;;;;9.83;62.76;102965.00;6225539;22;45341;-84
2022/03/18 01:59:45;;;;;;;;;25.00;19.00;;;;;9.63;63.07;102944.44;6225652;22;45634;-84
2022/03/18 02:02:11;;;;;;;;;22.67;21.33;;;;;9.62;62.75;102948.84;6224721;22;46843;-86
2022/03/18 02:04:37;;;;;;;;;18.00;16.67;;;;;9.68;62.77;102958.88;6226014;22;45410;-86
2022/03/18 02:07:03;;;;;;;;;20.00;18.33;;;;;9.61;63.12;102947.00;6254925;22;45674;-86
2022/03/18 02:09:31;;;;;;;;;23.00;22.33;;;;;9.63;63.20;102950.66;6227593;22;45376;-86
2022/03/18 02:11:56;;;;;;;;;25.33;22.33;;;;;9.56;63.35;102960.03;6227271;22;47230;-84
2022/03/18 02:14:42;;;;;;;;;24.00;23.33;;;;;9.72;62.81;102960.88;6254674;22;44756;-83
2022/03/18 02:17:10;;;;;;;;;26.67;23.33;;;;;9.61;63.45;102953.25;6226991;22;45693;-84
2022/03/18 02:19:37;;;;;;;;;29.33;25.67;;;;;9.62;63.56;102962.13;6228011;22;45430;-84
2022/03/18 02:22:22;;;;;;;;;28.67;25.67;;;;;9.66;63.19;102960.53;6228419;22;45397;-84
2022/03/18 02:24:50;;;;;;;;;28.33;25.67;;;;;9.55;63.70;102965.25;6253033;22;45428;-84
2022/03/18 02:27:16;;;;;;;;;22.00;21.33;;;;;9.44;63.84;102961.13;6226415;22;44846;-84
2022/03/18 02:29:43;;;;;;;;;26.67;26.67;;;;;9.43;63.86;102957.53;6226006;22;45417;-84
2022/03/18 02:32:11;;;;;;;;;22.33;22.33;;;;;9.41;63.67;102960.13;6225867;22;47154;-83
2022/03/18 02:34:38;;;;;;;;;27.00;25.67;;;;;9.35;64.24;102954.50;6227556;22;45286;-84
2022/03/18 02:37:05;;;;;;;;;27.33;26.00;;;;;9.39;64.05;102955.53;6227757;22;45696;-84
2022/03/18 02:39:31;;;;;;;;;24.33;19.33;;;;;9.27;63.88;102949.56;6254317;22;45678;-84
2022/03/18 02:41:57;;;;;;;;;19.33;17.33;;;;;9.26;64.00;102953.97;6254102;22;45357;-84
2022/03/18 02:44:23;;;;;;;;;30.33;26.33;;;;;9.16;64.10;102946.34;6254676;22;45453;-84
2022/03/18 02:46:49;;;;;;;;;25.67;21.33;;;;;9.16;64.17;102965.81;6228505;22;45232;-84
2022/03/18 02:50:10;;;;;;;;;26.00;24.00;;;;;9.26;64.06;102953.97;6228897;22;45671;-83
2022/03/18 02:52:36;;;;;;;;;19.67;19.00;;;;;9.01;64.54;102947.31;6226651;22;46888;-84
2022/03/18 02:55:02;;;;;;;;;23.00;21.33;;;;;9.11;64.54;102961.06;6254770;22;45269;-85
2022/03/18 02:57:32;;;;;;;;;21.33;19.67;;;;;9.05;64.48;102960.75;6254542;22;45291;-84
2022/03/18 03:00:06;;;;;;;;;22.67;20.33;;;;;9.20;64.39;102969.56;6226804;22;45137;-85
2022/03/18 03:02:31;;;;;;;;;23.00;22.00;;;;;9.00;64.66;102972.00;6227425;22;47615;-85
2022/03/18 03:07:59;;;;;;;;;21.00;21.00;;;;;8.95;64.33;102968.19;6255464;22;44863;-84
2022/03/18 03:10:33;;;;;;;;;21.33;21.33;;;;;9.02;64.46;102959.75;6228409;22;45981;-85
2022/03/18 03:13:01;;;;;;;;;26.00;22.00;;;;;8.94;64.74;102963.69;6227252;22;47077;-85
2022/03/18 03:15:27;;;;;;;;;21.33;21.33;;;;;8.87;64.81;102948.28;6227967;22;44891;-84
2022/03/18 03:17:54;;;;;;;;;24.00;24.00;;;;;9.01;64.75;102967.66;6253673;22;45393;-85
2022/03/18 03:20:20;;;;;;;;;22.00;21.00;;;;;8.92;64.72;102977.72;6252978;22;45404;-84
2022/03/18 03:22:45;;;;;;;;;20.67;20.33;;;;;8.86;64.46;102983.59;6225502;22;48154;-83
2022/03/18 03:25:11;;;;;;;;;18.67;18.67;;;;;8.84;64.18;102985.25;6214115;22;45362;-83
2022/03/18 03:27:36;;;;;;;;;19.67;18.33;;;;;8.70;64.18;102975.59;6194912;22;45712;-84
2022/03/18 03:30:05;;;;;;;;;21.67;21.00;;;;;8.77;64.80;102978.69;6222965;22;45284;-85
2022/03/18 03:32:37;;;;;;;;;24.67;21.67;;;;;8.74;64.90;102982.88;6195116;22;45330;-85
2022/03/18 03:35:05;;;;;;;;;20.67;20.33;;;;;8.78;64.71;102985.78;6196852;22;45991;-86
2022/03/18 03:37:30;;;;;;;;;15.67;12.33;;;;;8.66;64.79;102974.47;6196403;22;44929;-86
2022/03/18 03:39:56;;;;;;;;;26.33;21.67;;;;;8.66;65.00;102978.88;6196731;22;44793;-85
2022/03/18 03:42:21;;;;;;;;;19.50;18.00;;;;;8.63;65.15;102984.03;6195288;22;48374;-85
2022/03/18 03:44:47;;;;;;;;;28.00;21.67;;;;;8.59;64.99;102977.63;6196050;22;45407;-85
2022/03/18 03:51:12;;;;;;;;;23.33;20.67;;;;;8.80;64.46;102988.53;6224235;22;45521;-83
2022/03/18 03:53:37;;;;;;;;;23.67;22.00;;;;;8.62;64.85;102991.03;6196124;22;46699;-84
2022/03/18 03:56:03;;;;;;;;;23.50;20.50;;;;;8.57;65.50;102988.13;6223149;22;45405;-85
2022/03/18 03:58:28;;;;;;;;;27.33;22.00;;;;;8.58;65.48;102992.63;6196769;22;45363;-85
2022/03/18 04:00:54;;;;;;;;;27.00;24.67;;;;;8.58;65.14;103003.25;6223497;22;44698;-85
2022/03/18 04:03:19;;;;;;;;;21.67;21.67;;;;;8.55;65.17;103007.44;6225228;22;45744;-84
2022/03/18 04:05:45;;;;;;;;;19.00;17.67;;;;;8.47;65.38;102995.47;6224057;22;45425;-85
2022/03/18 04:08:10;;;;;;;;;24.33;21.67;;;;;8.47;65.42;102993.72;6224604;22;45430;-85
2022/03/18 04:10:42;;;;;;;;;25.33;21.00;;;;;8.47;65.11;102999.03;6199133;22;45693;-84
2022/03/18 04:13:08;;;;;;;;;21.33;20.00;;;;;8.50;65.29;102999.19;6225521;22;45281;-84
2022/03/18 04:15:34;;;;;;;;;20.00;18.33;;;;;8.39;65.06;102984.38;6173034;22;45319;-85
2022/03/18 04:17:59;;;;;;;;;28.33;24.00;;;;;8.54;65.65;103010.91;6198760;22;45887;-85
2022/03/18 04:20:25;;;;;;;;;24.67;24.33;;;;;8.57;65.49;103012.00;6224194;22;45445;-85
2022/03/18 04:22:52;;;;;;;;;22.00;21.00;;;;;8.55;65.73;102996.84;6194989;22;46488;-85
2022/03/18 04:25:18;;;;;;;;;21.33;19.67;;;;;8.64;65.32;103028.28;6198660;22;45471;-85
2022/03/18 04:27:43;;;;;;;;;28.67;21.00;;;;;8.53;65.82;103020.59;6197623;22;45803;-85
2022/03/18 04:30:11;;;;;;;;;25.67;23.33;;;;;8.64;65.53;103022.97;6197676;22;45473;-85
2022/03/18 04:32:37;;;;;;;;;23.67;23.67;;;;;8.59;65.69;103028.91;6224844;22;44918;-85
2022/03/18 04:35:06;;;;;;;;;23.33;22.00;;;;;8.66;65.42;103023.97;6196043;22;45376;-85
2022/03/18 04:37:31;;;;;;;;;24.33;22.67;;;;;8.56;65.39;103036.72;6220602;22;45479;-85
2022/03/18 04:39:57;;;;;;;;;25.00;21.00;;;;;8.58;65.35;103037.72;6197850;22;45362;-85
2022/03/18 04:42:22;;;;;;;;;27.33;25.00;;;;;8.46;65.46;103036.97;6223936;22;45305;-85
2022/03/18 04:44:50;;;;;;;;;26.33;22.33;;;;;8.52;65.09;103057.63;6196714;22;45388;-85
2022/03/18 04:47:17;;;;;;;;;20.67;20.00;;;;;8.57;65.44;103041.19;6224294;22;45402;-85
2022/03/18 04:49:42;;;;;;;;;25.33;24.00;;;;;8.43;65.40;103027.94;6224848;22;45396;-85
2022/03/18 04:52:08;;;;;;;;;16.33;15.00;;;;;8.42;65.32;103037.59;6197604;22;48546;-85
2022/03/18 04:54:34;;;;;;;;;29.67;22.00;;;;;8.42;65.48;103058.81;6225168;22;45587;-85
2022/03/18 04:59:43;;;;;;;;;25.67;20.33;;;;;8.38;65.18;103044.44;6225901;22;45236;-85
2022/03/18 05:02:10;;;;;;;;;18.00;18.00;;;;;8.34;65.33;103038.84;6224025;22;45569;-85
2022/03/18 05:04:37;;;;;;;;;17.33;17.33;;;;;8.38;65.42;103055.06;6223188;22;45434;-85
2022/03/18 05:07:03;;;;;;;;;20.33;19.33;;;;;8.30;65.52;103036.84;6196712;22;45522;-85
2022/03/18 05:09:28;;;;;;;;;21.67;20.00;;;;;8.36;65.54;103067.31;6200605;22;44971;-85
2022/03/18 05:11:54;;;;;;;;;17.67;15.67;;;;;8.29;65.46;103061.53;6198637;22;47928;-84
2022/03/18 05:14:19;;;;;;;;;20.67;18.00;;;;;8.29;65.63;103072.16;6225634;22;45760;-85
2022/03/18 05:16:45;;;;;;;;;20.67;19.00;;;;;8.23;65.67;103054.13;6224558;22;45243;-86
2022/03/18 05:22:32;;;;;;;;;21.67;19.00;;;;;8.17;65.14;103073.22;6225016;22;45473;-85
2022/03/18 05:24:59;;;;;;;;;21.00;19.00;;;;;8.14;65.36;103069.44;6221360;22;45298;-85
2022/03/18 05:27:25;;;;;;;;;21.67;17.67;;;;;8.11;65.57;103071.94;6222268;22;45463;-85
2022/03/18 05:29:51;;;;;;;;;25.67;23.00;;;;;8.04;65.32;103065.34;6197448;22;45272;-85
2022/03/18 05:32:17;;;;;;;;;15.67;15.67;;;;;8.04;65.73;103068.00;6223500;22;46815;-85
2022/03/18 05:34:42;;;;;;;;;18.33;18.33;;;;;8.07;65.48;103086.72;6195675;22;45461;-85
2022/03/18 05:37:08;;;;;;;;;20.00;18.67;;;;;8.07;65.61;103076.13;6221431;22;44987;-84
2022/03/18 05:39:34;;;;;;;;;25.00;23.33;;;;;8.17;65.61;103074.94;6195521;22;45109;-85
2022/03/18 05:42:00;;;;;;;;;19.33;17.33;;;;;8.13;65.37;103071.19;6194001;22;47205;-85
2022/03/18 05:44:27;;;;;;;;;25.00;23.67;;;;;8.28;65.62;103075.59;6222198;22;45393;-84
2022/03/18 05:46:52;;;;;;;;;26.00;23.33;;;;;8.24;65.25;103089.47;6223643;22;45772;-84
2022/03/18 05:49:18;;;;;;;;;23.00;20.00;;;;;8.23;64.71;103066.47;6197063;22;45362;-84
2022/03/18 05:51:50;;;;;;;;;21.67;19.00;;;;;8.42;64.49;103069.44;6224347;22;45848;-84
2022/03/18 05:54:16;;;;;;;;;21.67;19.00;;;;;8.33;64.65;103084.75;6224035;22;45435;-84
2022/03/18 05:56:55;;;;;;;;;24.33;23.00;;;;;8.49;64.12;103090.19;6196904;22;45404;-84
2022/03/18 05:59:26;;;;;;;;;22.33;21.33;;;;;8.56;64.27;103081.81;6196968;22;45347;-84
2022/03/18 06:01:56;;;;;;;;;23.33;20.67;;;;;8.48;63.90;103092.75;6196501;22;48083;-85
2022/03/18 06:04:23;;;;;;;;;20.00;20.00;;;;;8.51;64.30;103099.16;6197686;22;45366;-84
2022/03/18 06:06:48;;;;;;;;;17.33;16.67;;;;;8.43;64.17;103084.53;6197243;22;45724;-85
2022/03/18 06:12:00;;;;;;;;;23.33;21.33;;;;;8.43;64.10;103089.84;6225257;22;45389;-85
2022/03/18 06:14:28;;;;;;;;;27.00;19.67;;;;;8.49;63.86;103074.28;6196466;22;45434;-85
2022/03/18 06:16:57;;;;;;;;;16.67;15.33;;;;;8.59;63.45;103089.94;6224419;22;45311;-85
2022/03/18 06:19:24;;;;;;;;;20.33;18.00;;;;;8.49;63.36;103090.19;6196873;22;45363;-86
2022/03/18 06:21:50;;;;;;;;;27.67;24.33;;;;;8.54;62.92;103094.06;6222106;22;45357;-86
2022/03/18 06:24:17;;;;;;;;;23.33;22.33;;;;;8.56;63.03;103092.41;6225409;22;45346;-85
2022/03/18 06:26:43;;;;;;;;;19.67;19.67;;;;;8.59;62.66;103104.94;6252592;22;45453;-86
2022/03/18 06:29:12;;;;;;;;;25.00;24.00;;;;;8.57;62.74;103102.19;6226922;22;45777;-85
2022/03/18 06:31:39;;;;;;;;;17.33;17.00;;;;;8.52;62.37;103082.41;6227309;22;47136;-85
2022/03/18 06:34:04;;;;;;;;;20.00;20.00;;;;;8.71;62.40;103112.72;6227618;22;45391;-85
2022/03/18 06:36:31;;;;;;;;;29.00;21.00;;;;;8.70;62.05;103087.00;6226939;22;45327;-85
2022/03/18 06:38:56;;;;;;;;;25.00;20.67;;;;;8.71;62.18;103102.09;6228134;22;45447;-85
2022/03/18 06:41:22;;;;;;;;;23.33;19.67;;;;;8.67;61.83;103077.13;6254762;22;45507;-85
2022/03/18 06:43:49;;;;;;;;;21.67;19.33;;;;;8.72;61.24;103094.22;6254484;22;45391;-85
2022/03/18 06:46:14;;;;;;;;;28.67;23.67;;;;;8.67;60.54;103093.03;6228364;22;45128;-85
2022/03/18 06:48:44;;;;;;;;;23.33;21.33;;;;;8.74;60.62;103074.00;6255548;22;45760;-85
2022/03/18 06:51:11;;;;;;;;;28.00;20.00;;;;;8.81;60.77;103086.81;6228994;22;47189;-85
2022/03/18 06:53:37;;;;;;;;;26.33;23.33;;;;;8.70;60.33;103101.16;6227843;22;45333;-85
2022/03/18 06:56:04;;;;;;;;;19.67;19.00;;;;;8.60;61.05;103080.22;6230135;22;44900;-87
2022/03/18 06:58:31;;;;;;;;;24.00;21.67;;;;;8.73;60.48;103097.81;6232470;22;45219;-87
2022/03/18 07:00:56;;;;;;;;;21.67;19.67;;;;;8.78;60.37;103091.03;6258486;22;45309;-87
2022/03/18 07:03:22;;;;;;;;;20.00;20.00;;;;;8.81;60.17;103097.44;6228819;22;45296;-87
2022/03/18 07:05:48;;;;;;;;;18.67;17.33;;;;;8.74;59.99;103084.59;6229708;22;45586;-87
2022/03/18 07:08:17;;;;;;;;;24.00;23.67;;;;;8.79;60.51;103068.97;6229723;22;45176;-87
2022/03/18 07:10:42;;;;;;;;;19.67;19.67;;;;;8.59;60.06;103057.19;6229840;22;47079;-87
2022/03/18 07:13:08;;;;;;;;;24.33;20.67;;;;;8.67;60.19;103063.88;6229931;22;45288;-86
2022/03/18 07:15:34;;;;;;;;;26.33;22.00;;;;;8.86;60.24;103096.78;6206376;22;45474;-86
2022/03/18 07:17:59;;;;;;;;;24.00;24.00;;;;;8.92;60.74;103095.41;6257487;22;45446;-85
2022/03/18 07:20:34;;;;;;;;;27.00;24.67;;;;;9.23;60.40;103106.88;6229240;22;45464;-84
2022/03/18 07:23:08;;;;;;;;;25.00;21.33;;;;;9.29;58.54;103102.88;6230092;22;45665;-85
2022/03/18 07:25:40;;;;;;;;;24.00;18.67;;;;;9.40;57.49;103104.38;6222453;22;45396;-85
2022/03/18 07:28:09;;;;;;;;;24.67;21.33;;;;;9.04;56.94;103062.44;6227046;22;45359;-85
2022/03/18 07:30:40;;;;;;;;;27.67;22.67;;;;;9.17;57.25;103064.94;6200826;22;47031;-85
2022/03/18 07:33:12;;;;;;;;;24.33;20.00;;;;;9.29;57.90;103059.44;6200733;22;45474;-85
2022/03/18 07:35:43;;;;;;;;;24.00;20.00;;;;;9.35;56.84;103081.97;6168390;22;45355;-85
2022/03/18 07:38:09;;;;;;;;;25.33;23.00;;;;;9.32;57.46;103070.25;6175032;22;45394;-84
2022/03/18 07:40:43;;;;;;;;;28.67;20.67;;;;;9.39;57.48;103060.06;6226154;22;45703;-85
2022/03/18 07:43:10;;;;;;;;;28.33;21.67;;;;;9.33;57.11;103065.03;6196603;22;45509;-86
2022/03/18 07:45:43;;;;;;;;;29.00;22.33;;;;;9.48;57.34;103082.66;6174609;22;44707;-85
2022/03/18 07:48:11;;;;;;;;;14.67;14.67;;;;;9.59;56.68;103103.69;6174594;22;45332;-86
2022/03/18 07:50:46;;;;;;;;;24.00;20.00;;;;;9.55;57.03;103056.53;6200189;22;46802;-87
2022/03/18 07:56:33;;;;;;;;;27.00;24.00;;;;;9.93;56.50;103109.94;6225994;22;45323;-86
2022/03/18 07:59:08;;;;;;;;;29.00;22.67;;;;;10.10;56.39;103113.50;6198964;22;45758;-88
2022/03/18 08:01:57;;;;;;;;;27.33;24.33;;;;;10.10;56.44;103100.19;6201659;22;45583;-87
2022/03/18 08:04:23;;;;;;;;;27.00;22.00;;;;;10.12;57.10;103091.50;6194984;22;45184;-87
2022/03/18 08:06:52;;;;;;;;;29.33;26.67;;;;;10.00;57.07;103058.94;6225759;22;45430;-87
2022/03/18 08:09:21;;;;;;;;;30.00;24.67;;;;;10.44;56.35;103105.59;6226636;22;45400;-85
2022/03/18 08:12:06;;;;;;;;;32.00;28.67;;;;;10.64;56.27;103098.66;6170725;22;45418;-86
2022/03/18 08:14:34;;;;;;;;;26.67;26.00;;;;;10.45;55.94;103072.88;6203239;22;45429;-85
2022/03/18 08:17:43;;;;;;;;;30.00;25.67;;;;;10.80;54.77;103113.69;6230573;22;45098;-85
2022/03/18 08:20:13;;;;;;;;;24.00;22.33;;;;;10.62;54.08;103116.31;6203469;22;44811;-84
2022/03/18 08:22:40;;;;;;;;;25.00;24.67;;;;;10.48;55.40;103104.03;6231008;22;45462;-86
2022/03/18 08:25:11;;;;;;;;;27.00;25.00;;;;;10.64;55.30;103098.66;6206660;22;45296;-87
2022/03/18 08:35:18;;;;;;;;;24.33;23.33;;;;;10.79;54.99;103128.75;6050397;23;45507;-87
2022/03/18 08:37:56;;;;;;;;;26.33;25.00;;;;;10.67;53.00;103088.19;6081557;23;45292;-85
2022/03/18 08:40:32;;;;;;;;;22.00;21.00;;;;;10.72;53.32;103091.09;6107011;23;45523;-86
2022/03/18 08:43:11;;;;;;;;;21.00;19.33;;;;;10.98;52.37;103111.94;6081689;23;45444;-86
2022/03/18 08:45:40;;;;;;;;;6.00;6.00;;;;;10.97;51.72;103112.81;6108922;23;46071;-86
2022/03/18 08:48:08;;;;;;;;;27.00;27.00;;;;;10.81;51.38;103075.59;6108239;23;45363;-86
2022/03/18 08:51:44;;;;;;;;;21.00;20.67;;;;;11.23;52.06;103118.53;6108127;23;44786;-87
2022/03/18 08:54:39;;;;;;;;;23.67;23.00;;;;;11.41;53.26;103119.41;6022226;23;45568;-87
2022/03/18 08:57:08;;;;;;;;;24.67;21.33;;;;;11.44;50.54;103118.66;6018107;23;45357;-85
2022/03/18 09:00:01;;;;;;;;;21.67;21.33;;;;;11.40;51.32;103101.59;6021760;23;45261;-87
2022/03/18 09:02:37;;;;;;;;;23.33;22.33;;;;;11.19;49.93;103073.94;6046400;23;45360;-85
2022/03/18 09:05:46;;;;;;;;;23.67;18.67;;;;;11.44;50.55;103091.09;6081375;23;44831;-86
2022/03/18 09:09:27;;;;;;;;;;;;;;;;;;;;;
2022/03/18 09:20:27;;;;;;;;;23.67;21.67;;;;;11.76;48.25;103089.97;6191215;22;46815;-88
2022/03/18 09:23:08;;;;;;;;;19.67;18.67;;;;;11.94;46.00;103095.28;6266534;22;45322;-88
2022/03/18 09:26:12;;;;;;;;;17.50;15.00;;;;;12.01;47.44;103106.28;6265982;22;45452;-88
2022/03/18 09:29:09;;;;;;;;;17.33;15.00;;;;;11.98;44.96;103097.25;6188957;22;45357;-88
2022/03/18 09:35:56;;;;;;;;;14.33;14.33;;;;;12.31;44.63;103129.88;6295571;22;45613;-88
2022/03/18 09:38:59;;;;;;;;;12.33;9.67;;;;;12.29;43.29;103118.22;6194608;22;45500;-87
2022/03/18 09:47:40;;;;;;;;;12.33;12.33;;;;;12.26;44.05;103078.06;6258212;22;45786;-89
2022/03/18 09:50:10;;;;;;;;;19.67;15.67;;;;;12.41;43.01;103085.84;6240722;22;45263;-88
2022/03/18 09:52:42;;;;;;;;;13.67;12.67;;;;;12.50;42.53;103120.00;6265217;22;44856;-89
2022/03/18 09:55:37;;;;;;;;;;;;;;;;;;;;;
2022/03/18 09:58:13;;;;;;;;;15.67;14.00;;;;;12.72;42.09;103100.50;6288800;22;45314;-88
2022/03/18 10:09:09;;;;;;;;;14.67;13.00;;;;;13.11;40.35;103111.03;6284496;22;46315;-88
2022/03/18 10:11:50;;;;;;;;;9.33;9.00;;;;;13.19;38.48;103114.97;6264669;22;45434;-89
2022/03/18 10:14:24;;;;;;;;;12.00;10.67;;;;;13.05;36.08;103086.75;6211812;22;44811;-88
2022/03/18 10:17:21;;;;;;;;;;;;;;;;;;;;;
2022/03/18 10:20:57;;;;;;;;;10.00;9.00;;;;;13.11;34.63;103079.00;6288958;22;72739;-89
2022/03/18 10:29:11;;;;;;;;;11.67;10.33;;;;;13.33;34.24;103065.72;6214944;22;46541;-88
2022/03/18 10:32:31;;;;;;;;;;;;;;;;;;;;;
2022/03/18 10:39:25;;;;;;;;;7.00;7.00;;;;;13.70;33.92;103093.88;6138992;23;44911;-87
2022/03/18 10:42:20;;;;;;;;;7.33;7.33;;;;;13.68;32.42;103092.91;6137195;23;46164;-88
2022/03/18 10:45:04;;;;;;;;;10.67;10.33;;;;;13.42;31.85;103048.22;6136721;23;45401;-87
2022/03/18 10:47:53;;;;;;;;;10.00;10.00;;;;;13.77;33.24;103095.94;6138996;23;44702;-88
2022/03/18 10:50:30;;;;;;;;;11.00;11.00;;;;;13.52;32.20;103032.59;6113705;23;44881;-88
2022/03/18 10:53:34;;;;;;;;;15.00;13.33;;;;;13.87;32.30;103083.81;6108573;23;45300;-89
2022/03/18 10:56:15;;;;;;;;;3.00;3.00;;;;;13.69;32.44;103046.59;6053889;23;45289;-89
2022/03/18 10:58:46;;;;;;;;;9.67;8.00;;;;;13.83;33.68;103076.53;6075054;23;45254;-86
2022/03/18 11:01:32;;;;;;;;;9.33;8.33;;;;;13.89;34.16;103051.78;6054505;23;45340;-87
2022/03/18 11:14:25;;;;;;;;;8.67;7.67;;;;;14.23;30.88;103079.81;6079991;23;45382;-87
2022/03/18 11:20:02;;;;;;;;;10.33;8.67;;;;;14.26;30.57;103071.88;6153659;22;45494;-87
2022/03/18 11:22:28;;;;;;;;;10.67;9.00;;;;;14.36;29.86;103074.94;6230972;22;45524;-84
2022/03/18 11:32:38;;;;;;;;;10.67;10.33;;;;;14.59;28.67;103070.44;6283485;22;45328;-90
2022/03/18 11:35:40;;;;;;;;;10.00;9.00;;;;;14.59;27.99;103073.09;6255755;22;45668;-87
2022/03/18 11:38:30;;;;;;;;;8.67;7.00;;;;;14.62;27.33;103061.59;6240968;22;45290;-87
2022/03/18 11:44:29;;;;;;;;;8.33;6.33;;;;;14.78;28.93;103055.91;6201214;22;45383;-86
2022/03/18 11:48:04;;;;;;;;;8.67;7.00;;;;;14.95;29.44;103053.78;6228568;22;45414;-85
2022/03/18 11:54:35;;;;;;;;;;;;;;;;;;;;;
2022/03/18 11:57:43;;;;;;;;;9.00;8.33;;;;;15.16;28.30;103036.59;6198269;23;72369;-88
2022/03/18 12:00:33;;;;;;;;;9.33;8.33;;;;;15.22;28.89;103042.13;6199588;23;45816;-86
2022/03/18 12:04:10;;;;;;;;;9.00;6.67;;;;;15.29;31.41;103038.81;6143201;23;45308;-84
2022/03/18 12:06:56;;;;;;;;;15.00;14.67;;;;;15.27;32.45;103029.81;6141961;23;45242;-86
2022/03/18 12:09:26;;;;;;;;;16.00;12.00;;;;;15.20;31.87;103027.78;6158538;23;44926;-84
2022/03/18 12:11:51;;;;;;;;;11.00;11.00;;;;;15.01;31.70;102988.78;6192914;23;45381;-85
2022/03/18 12:14:34;;;;;;;;;16.67;14.33;;;;;15.23;32.46;102995.72;6169513;23;44818;-87
2022/03/18 12:18:04;;;;;;;;;14.00;13.33;;;;;15.42;31.62;103023.09;6196895;23;47726;-88
2022/03/18 12:20:39;;;;;;;;;16.67;16.33;;;;;15.19;33.08;102983.09;6191961;23;44682;-83
2022/03/18 12:23:09;;;;;;;;;12.33;10.67;;;;;15.48;32.97;103017.91;6193490;23;45342;-83
2022/03/18 12:25:39;;;;;;;;;19.00;19.00;;;;;15.46;32.29;103025.00;6142429;23;45327;-85
2022/03/18 12:28:25;;;;;;;;;13.33;13.00;;;;;15.46;31.22;103035.72;6163746;23;45367;-86
2022/03/18 12:31:13;;;;;;;;;15.00;14.00;;;;;15.32;31.10;103017.44;6160194;23;44876;-86
2022/03/18 12:34:47;;;;;;;;;;;;;;;;;;;;;
2022/03/18 12:41:10;;;;;;;;;11.33;11.33;;;;;15.65;31.48;102992.47;6188913;23;45440;-86
2022/03/18 12:44:01;;;;;;;;;;;;;;;;;;;;;
2022/03/18 12:47:05;;;;;;;;;16.33;13.00;;;;;15.66;29.65;102983.59;6096874;23;67492;-85
2022/03/18 12:50:31;;;;;;;;;13.00;13.00;;;;;15.74;31.14;102989.22;6193164;23;45542;-86
2022/03/18 12:53:01;;;;;;;;;17.67;14.00;;;;;15.49;31.55;102948.25;6154560;23;46796;-86
2022/03/18 12:55:45;;;;;;;;;15.00;13.00;;;;;15.82;30.41;102976.94;6194580;22;44829;-86
2022/03/18 12:59:13;;;;;;;;;16.67;13.00;;;;;15.62;30.74;102930.72;6195196;23;44832;-86
2022/03/18 13:02:06;;;;;;;;;12.67;12.00;;;;;15.85;29.99;102960.00;6169832;23;45484;-88
2022/03/18 13:04:35;;;;;;;;;17.00;14.33;;;;;15.75;30.09;102970.50;6190265;23;47465;-87
2022/03/18 13:07:23;;;;;;;;;6.67;5.00;;;;;15.95;30.48;102962.97;6196576;23;45364;-85
2022/03/18 13:09:50;;;;;;;;;12.00;12.00;;;;;15.86;29.24;102953.78;6204400;22;45438;-85
2022/03/18 13:12:28;;;;;;;;;11.67;10.33;;;;;15.92;29.15;102945.91;6257780;22;45534;-85
2022/03/18 13:15:21;;;;;;;;;10.00;10.00;;;;;15.92;30.92;102930.69;6282590;22;46884;-86
2022/03/18 13:17:49;;;;;;;;;10.33;10.00;;;;;16.16;30.20;102959.97;6257446;22;45362;-87
2022/03/18 13:20:36;;;;;;;;;12.00;11.00;;;;;16.22;29.86;102961.91;6256319;22;44835;-88
2022/03/18 13:23:19;;;;;;;;;11.00;10.00;;;;;16.19;28.64;102949.28;6260816;22;45515;-87
2022/03/18 13:25:50;;;;;;;;;9.00;9.00;;;;;16.19;28.47;102922.44;6256861;22;45447;-87
2022/03/18 13:28:29;;;;;;;;;10.00;10.00;;;;;16.08;26.08;102910.53;6255933;22;45377;-87
2022/03/18 13:33:49;;;;;;;;;10.00;8.33;;;;;16.20;27.04;102904.59;6258232;22;45291;-87
2022/03/18 13:36:40;;;;;;;;;6.00;6.00;;;;;16.33;28.61;102908.47;6256727;22;46831;-86
2022/03/18 13:39:24;;;;;;;;;9.00;9.00;;;;;16.42;27.00;102948.06;6259383;22;45894;-87
2022/03/18 13:45:25;;;;;;;;;8.33;8.33;;;;;16.50;28.03;102904.44;6262454;22;44742;-87